sensor_id;sensor_type;location;lat;lon;timestamp;pressure;altitude;pressure_sealevel;temperature;humidity
59443;BME280;45247;47.466;19.004;2023-07-13T05:07:14;99766.31;;;20.62;100.00
59443;BME280;45247;47.466;19.004;2023-07-13T05:09:42;99793.50;;;20.23;100.00
59443;BME280;45247;47.466;19.004;2023-07-13T05:12:11;99811.97;;;19.90;100.00
59443;BME280;45247;47.466;19.004;2023-07-13T05:14:39;99831.88;;;19.70;100.00
59443;BME280;45247;47.466;19.004;2023-07-13T05:17:07;99834.16;;;19.55;100.00
59443;BME280;45247;47.466;19.004;2023-07-13T05:19:36;99839.97;;;19.50;100.00
59443;BME280;45247;47.466;19.004;2023-07-13T05:22:04;99801.66;;;19.32;100.00
59443;BME280;45247;47.466;19.004;2023-07-13T05:24:34;99808.75;;;19.14;100.00
59443;BME280;45247;47.466;19.004;2023-07-13T05:27:03;99804.31;;;19.05;100.00
59443;BME280;45247;47.466;19.004;2023-07-13T05:29:31;99810.00;;;18.92;100.00
59443;BME280;45247;47.466;19.004;2023-07-13T05:31:59;99797.66;;;18.81;100.00
59443;BME280;45247;47.466;19.004;2023-07-13T05:34:28;99790.06;;;18.67;100.00
59443;BME280;45247;47.466;19.004;2023-07-13T05:36:56;99789.25;;;18.57;100.00
59443;BME280;45247;47.466;19.004;2023-07-13T05:39:25;99774.38;;;18.44;100.00
59443;BME280;45247;47.466;19.004;2023-07-13T05:41:56;99775.81;;;18.39;100.00
59443;BME280;45247;47.466;19.004;2023-07-13T05:44:24;99783.13;;;18.37;100.00
59443;BME280;45247;47.466;19.004;2023-07-13T05:46:52;99758.97;;;18.29;100.00
59443;BME280;45247;47.466;19.004;2023-07-13T05:49:22;99744.34;;;18.23;100.00
59443;BME280;45247;47.466;19.004;2023-07-13T05:51:50;99744.09;;;18.16;100.00
59443;BME280;45247;47.466;19.004;2023-07-13T05:54:19;99743.81;;;18.10;100.00
59443;BME280;45247;47.466;19.004;2023-07-13T05:56:47;99712.66;;;18.00;100.00
59443;BME280;45247;47.466;19.004;2023-07-13T05:59:17;99713.22;;;17.94;100.00
59443;BME280;45247;47.466;19.004;2023-07-13T06:01:46;99709.72;;;17.84;100.00
59443;BME280;45247;47.466;19.004;2023-07-13T06:04:15;99718.00;;;17.81;100.00
59443;BME280;45247;47.466;19.004;2023-07-13T06:06:43;99670.53;;;17.75;100.00
59443;BME280;45247;47.466;19.004;2023-07-13T06:09:12;99626.69;;;17.87;100.00
59443;BME280;45247;47.466;19.004;2023-07-13T06:11:40;99520.16;;;17.94;100.00
59443;BME280;45247;47.466;19.004;2023-07-13T06:14:09;99408.28;;;18.00;100.00
59443;BME280;45247;47.466;19.004;2023-07-13T06:16:39;99353.22;;;17.99;100.00
59443;BME280;45247;47.466;19.004;2023-07-13T06:19:08;99383.97;;;18.04;100.00
59443;BME280;45247;47.466;19.004;2023-07-13T06:21:36;99406.06;;;17.96;100.00
59443;BME280;45247;47.466;19.004;2023-07-13T06:24:05;99421.94;;;17.97;100.00
59443;BME280;45247;47.466;19.004;2023-07-13T06:26:33;99376.63;;;18.06;100.00
59443;BME280;45247;47.466;19.004;2023-07-13T06:29:01;99361.00;;;18.11;100.00
59443;BME280;45247;47.466;19.004;2023-07-13T06:31:31;99348.25;;;18.22;100.00
59443;BME280;45247;47.466;19.004;2023-07-13T06:34:02;99352.00;;;18.30;100.00
59443;BME280;45247;47.466;19.004;2023-07-13T06:36:31;99363.25;;;18.41;100.00
59443;BME280;45247;47.466;19.004;2023-07-13T06:38:59;99384.47;;;18.61;100.00
59443;BME280;45247;47.466;19.004;2023-07-13T06:41:27;99386.31;;;18.78;100.00
59443;BME280;45247;47.466;19.004;2023-07-13T06:43:57;99386.06;;;18.89;100.00
59443;BME280;45247;47.466;19.004;2023-07-13T06:46:25;99398.59;;;19.15;100.00
59443;BME280;45247;47.466;19.004;2023-07-13T06:48:54;99414.34;;;19.26;100.00
59443;BME280;45247;47.466;19.004;2023-07-13T06:51:24;99388.00;;;19.39;100.00
59443;BME280;45247;47.466;19.004;2023-07-13T06:53:52;99410.19;;;19.58;100.00
59443;BME280;45247;47.466;19.004;2023-07-13T06:56:21;99419.19;;;19.57;100.00
59443;BME280;45247;47.466;19.004;2023-07-13T06:58:49;99399.53;;;19.74;100.00
59443;BME280;45247;47.466;19.004;2023-07-13T07:01:18;99420.03;;;19.99;100.00
59443;BME280;45247;47.466;19.004;2023-07-13T07:03:46;99426.63;;;20.30;100.00
59443;BME280;45247;47.466;19.004;2023-07-13T07:06:17;99422.19;;;20.71;100.00
59443;BME280;45247;47.466;19.004;2023-07-13T07:08:47;99422.78;;;21.22;100.00
59443;BME280;45247;47.466;19.004;2023-07-13T07:11:20;99463.31;;;21.60;100.00
59443;BME280;45247;47.466;19.004;2023-07-13T07:13:49;99598.00;;;21.80;100.00
59443;BME280;45247;47.466;19.004;2023-07-13T07:16:17;99576.06;;;21.76;100.00
59443;BME280;45247;47.466;19.004;2023-07-13T07:18:48;99612.72;;;22.08;100.00
59443;BME280;45247;47.466;19.004;2023-07-13T07:21:16;99606.34;;;22.17;100.00
59443;BME280;45247;47.466;19.004;2023-07-13T07:23:45;99631.22;;;22.19;100.00
59443;BME280;45247;47.466;19.004;2023-07-13T07:26:15;99623.63;;;22.31;100.00
59443;BME280;45247;47.466;19.004;2023-07-13T07:28:44;99626.47;;;22.69;100.00
59443;BME280;45247;47.466;19.004;2023-07-13T07:31:32;99630.94;;;22.85;100.00
59443;BME280;45247;47.466;19.004;2023-07-13T07:34:04;99639.84;;;23.16;100.00
59443;BME280;45247;47.466;19.004;2023-07-13T07:36:32;99647.34;;;22.98;100.00
59443;BME280;45247;47.466;19.004;2023-07-13T07:39:04;99658.66;;;22.85;100.00
59443;BME280;45247;47.466;19.004;2023-07-13T07:41:35;99638.41;;;23.06;100.00
59443;BME280;45247;47.466;19.004;2023-07-13T07:44:07;99656.13;;;23.23;100.00
59443;BME280;45247;47.466;19.004;2023-07-13T07:46:36;99652.09;;;23.19;100.00
59443;BME280;45247;47.466;19.004;2023-07-13T07:49:05;99641.66;;;23.47;100.00
59443;BME280;45247;47.466;19.004;2023-07-13T07:51:33;99637.91;;;23.25;100.00
59443;BME280;45247;47.466;19.004;2023-07-13T07:54:01;99619.63;;;23.43;100.00
59443;BME280;45247;47.466;19.004;2023-07-13T07:56:30;99623.44;;;23.72;100.00
59443;BME280;45247;47.466;19.004;2023-07-13T07:59:03;99624.06;;;24.12;100.00
59443;BME280;45247;47.466;19.004;2023-07-13T08:01:34;99617.25;;;24.31;100.00
59443;BME280;45247;47.466;19.004;2023-07-13T08:04:05;99613.25;;;24.56;100.00
59443;BME280;45247;47.466;19.004;2023-07-13T08:06:53;99620.53;;;24.56;100.00
59443;BME280;45247;47.466;19.004;2023-07-13T08:09:23;99616.59;;;24.73;100.00
59443;BME280;45247;47.466;19.004;2023-07-13T08:11:51;99615.81;;;24.79;100.00
59443;BME280;45247;47.466;19.004;2023-07-13T08:14:25;99627.63;;;24.93;100.00
59443;BME280;45247;47.466;19.004;2023-07-13T08:17:12;99617.78;;;25.07;100.00
59443;BME280;45247;47.466;19.004;2023-07-13T08:19:42;99629.91;;;25.11;100.00
59443;BME280;45247;47.466;19.004;2023-07-13T08:22:10;99634.31;;;24.97;100.00
59443;BME280;45247;47.466;19.004;2023-07-13T08:24:43;99648.94;;;25.24;100.00
59443;BME280;45247;47.466;19.004;2023-07-13T08:27:15;99623.47;;;25.12;100.00
59443;BME280;45247;47.466;19.004;2023-07-13T08:29:44;99631.94;;;25.52;100.00
59443;BME280;45247;47.466;19.004;2023-07-13T08:32:13;99630.53;;;25.77;100.00
59443;BME280;45247;47.466;19.004;2023-07-13T08:34:41;99620.19;;;25.38;100.00
59443;BME280;45247;47.466;19.004;2023-07-13T08:37:10;99626.31;;;25.25;100.00
59443;BME280;45247;47.466;19.004;2023-07-13T08:39:38;99628.34;;;25.66;100.00
59443;BME280;45247;47.466;19.004;2023-07-13T08:42:12;99626.81;;;25.78;100.00
59443;BME280;45247;47.466;19.004;2023-07-13T08:44:51;99630.53;;;25.56;100.00
59443;BME280;45247;47.466;19.004;2023-07-13T08:47:24;99640.13;;;25.58;100.00
59443;BME280;45247;47.466;19.004;2023-07-13T08:49:53;99658.44;;;25.84;98.21
59443;BME280;45247;47.466;19.004;2023-07-13T08:52:30;99643.66;;;26.08;100.00
59443;BME280;45247;47.466;19.004;2023-07-13T08:55:04;99648.41;;;26.34;97.40
59443;BME280;45247;47.466;19.004;2023-07-13T08:57:37;99655.09;;;26.10;100.00
59443;BME280;45247;47.466;19.004;2023-07-13T09:00:11;99646.25;;;26.23;97.47
59443;BME280;45247;47.466;19.004;2023-07-13T09:02:46;99648.56;;;26.33;97.77
59443;BME280;45247;47.466;19.004;2023-07-13T09:05:24;99662.53;;;26.36;93.16
59443;BME280;45247;47.466;19.004;2023-07-13T09:08:08;99654.00;;;26.33;100.00
59443;BME280;45247;47.466;19.004;2023-07-13T09:10:43;99656.66;;;26.26;97.36
59443;BME280;45247;47.466;19.004;2023-07-13T09:13:22;99666.00;;;26.23;99.78
59443;BME280;45247;47.466;19.004;2023-07-13T09:15:58;99657.97;;;26.37;100.00
59443;BME280;45247;47.466;19.004;2023-07-13T09:18:31;99653.59;;;26.36;97.66
59443;BME280;45247;47.466;19.004;2023-07-13T09:21:04;99653.81;;;26.34;98.58
59443;BME280;45247;47.466;19.004;2023-07-13T09:23:36;99659.44;;;26.74;96.16
59443;BME280;45247;47.466;19.004;2023-07-13T09:26:10;99664.69;;;26.82;92.47
59443;BME280;45247;47.466;19.004;2023-07-13T09:28:42;99676.19;;;27.04;95.52
59443;BME280;45247;47.466;19.004;2023-07-13T09:31:14;99677.94;;;27.12;91.93
59443;BME280;45247;47.466;19.004;2023-07-13T09:33:43;99680.41;;;27.07;87.86
59443;BME280;45247;47.466;19.004;2023-07-13T09:36:19;99693.69;;;27.02;92.38
59443;BME280;45247;47.466;19.004;2023-07-13T09:38:49;99695.44;;;26.75;92.02
59443;BME280;45247;47.466;19.004;2023-07-13T09:41:28;99686.22;;;26.56;95.15
59443;BME280;45247;47.466;19.004;2023-07-13T09:44:10;99695.84;;;26.71;90.23
59443;BME280;45247;47.466;19.004;2023-07-13T09:46:45;99680.41;;;26.31;93.02
59443;BME280;45247;47.466;19.004;2023-07-13T09:49:14;99694.91;;;26.23;94.19
59443;BME280;45247;47.466;19.004;2023-07-13T09:51:42;99683.25;;;26.51;96.54
59443;BME280;45247;47.466;19.004;2023-07-13T09:54:19;99698.59;;;26.78;88.54
59443;BME280;45247;47.466;19.004;2023-07-13T09:56:47;99688.66;;;26.85;87.90
59443;BME280;45247;47.466;19.004;2023-07-13T09:59:20;99694.50;;;26.95;84.64
59443;BME280;45247;47.466;19.004;2023-07-13T10:01:51;99687.06;;;27.11;83.66
59443;BME280;45247;47.466;19.004;2023-07-13T10:04:27;99691.63;;;26.62;87.28
59443;BME280;45247;47.466;19.004;2023-07-13T10:07:05;99706.53;;;26.17;88.67
59443;BME280;45247;47.466;19.004;2023-07-13T10:09:54;99705.44;;;26.39;88.48
59443;BME280;45247;47.466;19.004;2023-07-13T10:12:23;99700.56;;;26.56;82.64
59443;BME280;45247;47.466;19.004;2023-07-13T10:14:54;99704.41;;;26.75;84.37
59443;BME280;45247;47.466;19.004;2023-07-13T10:17:44;99688.25;;;27.02;79.46
59443;BME280;45247;47.466;19.004;2023-07-13T10:20:14;99693.41;;;26.83;82.40
59443;BME280;45247;47.466;19.004;2023-07-13T10:22:46;99703.72;;;27.08;83.91
59443;BME280;45247;47.466;19.004;2023-07-13T10:25:21;99713.31;;;27.10;79.18
59443;BME280;45247;47.466;19.004;2023-07-13T10:27:53;99702.41;;;26.97;82.01
59443;BME280;45247;47.466;19.004;2023-07-13T10:30:26;99710.88;;;27.22;80.62
59443;BME280;45247;47.466;19.004;2023-07-13T10:33:01;99702.59;;;27.43;77.67
59443;BME280;45247;47.466;19.004;2023-07-13T10:35:31;99706.34;;;27.56;76.19
59443;BME280;45247;47.466;19.004;2023-07-13T10:38:02;99709.75;;;27.98;73.94
59443;BME280;45247;47.466;19.004;2023-07-13T10:40:35;99707.66;;;28.00;74.79
59443;BME280;45247;47.466;19.004;2023-07-13T10:43:10;99704.72;;;27.68;71.82
59443;BME280;45247;47.466;19.004;2023-07-13T10:45:43;99696.00;;;27.92;73.77
59443;BME280;45247;47.466;19.004;2023-07-13T10:48:14;99701.78;;;28.29;72.50
59443;BME280;45247;47.466;19.004;2023-07-13T10:50:45;99700.09;;;28.55;70.77
59443;BME280;45247;47.466;19.004;2023-07-13T10:53:19;99714.75;;;28.27;68.83
59443;BME280;45247;47.466;19.004;2023-07-13T10:55:58;99697.84;;;28.12;70.27
59443;BME280;45247;47.466;19.004;2023-07-13T10:58:32;99695.72;;;28.47;68.25
59443;BME280;45247;47.466;19.004;2023-07-13T11:01:07;99703.47;;;28.43;67.02
59443;BME280;45247;47.466;19.004;2023-07-13T11:03:54;99694.28;;;28.44;65.27
59443;BME280;45247;47.466;19.004;2023-07-13T11:06:39;99694.00;;;28.73;63.47
59443;BME280;45247;47.466;19.004;2023-07-13T11:09:25;99692.19;;;28.47;62.60
59443;BME280;45247;47.466;19.004;2023-07-13T11:11:59;99681.78;;;28.37;61.67
59443;BME280;45247;47.466;19.004;2023-07-13T11:14:31;99695.97;;;28.32;62.26
59443;BME280;45247;47.466;19.004;2023-07-13T11:20:34;99712.44;;;28.51;64.28
59443;BME280;45247;47.466;19.004;2023-07-13T11:23:28;99705.53;;;28.55;60.17
59443;BME280;45247;47.466;19.004;2023-07-13T11:25:57;99701.38;;;28.45;61.21
59443;BME280;45247;47.466;19.004;2023-07-13T11:28:30;99684.47;;;28.50;61.53
59443;BME280;45247;47.466;19.004;2023-07-13T11:31:13;99678.00;;;28.44;61.13
59443;BME280;45247;47.466;19.004;2023-07-13T11:33:56;99691.97;;;28.55;62.23
59443;BME280;45247;47.466;19.004;2023-07-13T11:36:36;99688.03;;;28.37;64.61
59443;BME280;45247;47.466;19.004;2023-07-13T11:39:21;99684.19;;;28.65;60.73
59443;BME280;45247;47.466;19.004;2023-07-13T11:41:54;99683.91;;;28.86;60.41
59443;BME280;45247;47.466;19.004;2023-07-13T11:44:25;99682.63;;;28.44;60.37
59443;BME280;45247;47.466;19.004;2023-07-13T11:46:56;99696.63;;;28.92;61.82
59443;BME280;45247;47.466;19.004;2023-07-13T11:49:30;99699.16;;;29.01;61.11
59443;BME280;45247;47.466;19.004;2023-07-13T11:52:01;99704.09;;;29.17;61.96
59443;BME280;45247;47.466;19.004;2023-07-13T11:54:32;99696.88;;;28.78;61.59
59443;BME280;45247;47.466;19.004;2023-07-13T11:57:10;99696.84;;;29.04;61.87
59443;BME280;45247;47.466;19.004;2023-07-13T11:59:45;99694.97;;;28.98;59.80
59443;BME280;45247;47.466;19.004;2023-07-13T12:02:17;99699.72;;;29.09;60.96
59443;BME280;45247;47.466;19.004;2023-07-13T12:04:50;99695.41;;;28.82;63.15
59443;BME280;45247;47.466;19.004;2023-07-13T12:07:21;99688.84;;;28.58;63.81
59443;BME280;45247;47.466;19.004;2023-07-13T12:09:50;99679.03;;;28.50;63.31
59443;BME280;45247;47.466;19.004;2023-07-13T12:12:21;99674.06;;;28.40;64.00
59443;BME280;45247;47.466;19.004;2023-07-13T12:14:51;99667.06;;;28.71;63.79
59443;BME280;45247;47.466;19.004;2023-07-13T12:17:22;99669.91;;;28.96;64.58
59443;BME280;45247;47.466;19.004;2023-07-13T12:19:54;99684.59;;;28.75;61.29
59443;BME280;45247;47.466;19.004;2023-07-13T12:22:25;99673.56;;;28.70;63.28
59443;BME280;45247;47.466;19.004;2023-07-13T12:24:53;99677.00;;;28.97;63.14
59443;BME280;45247;47.466;19.004;2023-07-13T12:27:26;99672.00;;;28.87;62.40
59443;BME280;45247;47.466;19.004;2023-07-13T12:29:59;99652.59;;;28.84;62.83
59443;BME280;45247;47.466;19.004;2023-07-13T12:32:28;99660.88;;;29.02;61.57
59443;BME280;45247;47.466;19.004;2023-07-13T12:35:13;99654.50;;;28.83;61.63
59443;BME280;45247;47.466;19.004;2023-07-13T12:37:44;99656.03;;;29.11;62.45
59443;BME280;45247;47.466;19.004;2023-07-13T12:40:15;99653.69;;;28.76;62.70
59443;BME280;45247;47.466;19.004;2023-07-13T12:42:46;99652.13;;;28.42;62.02
59443;BME280;45247;47.466;19.004;2023-07-13T12:45:19;99670.06;;;28.30;62.49
59443;BME280;45247;47.466;19.004;2023-07-13T12:47:49;99661.28;;;28.61;61.53
59443;BME280;45247;47.466;19.004;2023-07-13T12:50:20;99665.38;;;28.77;61.49
59443;BME280;45247;47.466;19.004;2023-07-13T12:52:53;99672.38;;;29.04;61.30
59443;BME280;45247;47.466;19.004;2023-07-13T12:55:22;99659.72;;;29.23;59.84
59443;BME280;45247;47.466;19.004;2023-07-13T12:57:52;99673.63;;;29.02;59.83
59443;BME280;45247;47.466;19.004;2023-07-13T13:00:25;99667.56;;;29.06;61.34
59443;BME280;45247;47.466;19.004;2023-07-13T13:02:56;99657.28;;;29.15;60.77
59443;BME280;45247;47.466;19.004;2023-07-13T13:05:28;99667.84;;;29.30;59.71
59443;BME280;45247;47.466;19.004;2023-07-13T13:08:00;99657.66;;;29.50;59.52
59443;BME280;45247;47.466;19.004;2023-07-13T13:10:28;99656.16;;;29.54;59.86
59443;BME280;45247;47.466;19.004;2023-07-13T13:12:56;99648.44;;;29.26;58.15
59443;BME280;45247;47.466;19.004;2023-07-13T13:15:26;99638.44;;;29.20;58.62
59443;BME280;45247;47.466;19.004;2023-07-13T13:17:54;99651.06;;;28.94;60.60
59443;BME280;45247;47.466;19.004;2023-07-13T13:20:22;99642.94;;;29.01;60.77
59443;BME280;45247;47.466;19.004;2023-07-13T13:22:52;99639.00;;;29.29;59.23
59443;BME280;45247;47.466;19.004;2023-07-13T13:25:22;99631.13;;;28.76;58.70
59443;BME280;45247;47.466;19.004;2023-07-13T13:27:50;99630.59;;;28.47;59.23
59443;BME280;45247;47.466;19.004;2023-07-13T13:30:18;99644.94;;;28.74;58.74
59443;BME280;45247;47.466;19.004;2023-07-13T13:32:48;99639.44;;;28.81;57.73
59443;BME280;45247;47.466;19.004;2023-07-13T13:35:19;99647.78;;;28.86;59.22
59443;BME280;45247;47.466;19.004;2023-07-13T13:37:48;99641.56;;;28.72;59.74
59443;BME280;45247;47.466;19.004;2023-07-13T13:40:19;99634.00;;;28.87;58.72
59443;BME280;45247;47.466;19.004;2023-07-13T13:42:49;99639.41;;;29.01;57.82
59443;BME280;45247;47.466;19.004;2023-07-13T13:45:19;99639.38;;;28.94;57.49
59443;BME280;45247;47.466;19.004;2023-07-13T13:47:48;99647.81;;;28.79;58.21
59443;BME280;45247;47.466;19.004;2023-07-13T13:50:18;99640.75;;;28.72;59.27
59443;BME280;45247;47.466;19.004;2023-07-13T13:52:49;99630.59;;;28.54;60.23
59443;BME280;45247;47.466;19.004;2023-07-13T13:55:19;99626.16;;;28.66;60.20
59443;BME280;45247;47.466;19.004;2023-07-13T13:57:51;99635.31;;;28.78;57.60
59443;BME280;45247;47.466;19.004;2023-07-13T14:00:21;99635.63;;;28.95;58.23
59443;BME280;45247;47.466;19.004;2023-07-13T14:02:49;99641.16;;;28.68;58.63
59443;BME280;45247;47.466;19.004;2023-07-13T14:05:21;99642.56;;;28.39;58.90
59443;BME280;45247;47.466;19.004;2023-07-13T14:07:50;99637.53;;;28.36;60.30
59443;BME280;45247;47.466;19.004;2023-07-13T14:10:20;99640.91;;;28.18;60.53
59443;BME280;45247;47.466;19.004;2023-07-13T14:12:52;99652.56;;;28.12;61.15
59443;BME280;45247;47.466;19.004;2023-07-13T14:15:23;99644.41;;;28.32;61.58
59443;BME280;45247;47.466;19.004;2023-07-13T14:17:51;99655.25;;;28.32;62.81
59443;BME280;45247;47.466;19.004;2023-07-13T14:20:21;99643.75;;;28.43;63.18
59443;BME280;45247;47.466;19.004;2023-07-13T14:22:51;99642.56;;;28.39;62.30
59443;BME280;45247;47.466;19.004;2023-07-13T14:25:20;99649.88;;;28.19;61.33
59443;BME280;45247;47.466;19.004;2023-07-13T14:27:51;99645.47;;;28.25;62.22
59443;BME280;45247;47.466;19.004;2023-07-13T14:30:24;99658.84;;;28.00;63.20
59443;BME280;45247;47.466;19.004;2023-07-13T14:32:52;99652.56;;;28.19;63.15
59443;BME280;45247;47.466;19.004;2023-07-13T14:35:21;99660.50;;;28.20;62.75
59443;BME280;45247;47.466;19.004;2023-07-13T14:37:51;99665.94;;;28.01;62.83
59443;BME280;45247;47.466;19.004;2023-07-13T14:40:24;99656.38;;;27.98;63.15
59443;BME280;45247;47.466;19.004;2023-07-13T14:42:53;99662.59;;;28.18;62.72
59443;BME280;45247;47.466;19.004;2023-07-13T14:45:24;99666.75;;;28.21;61.88
59443;BME280;45247;47.466;19.004;2023-07-13T14:47:53;99677.63;;;28.08;61.84
59443;BME280;45247;47.466;19.004;2023-07-13T14:50:28;99688.88;;;27.91;63.22
59443;BME280;45247;47.466;19.004;2023-07-13T14:52:58;99682.63;;;28.11;62.97
59443;BME280;45247;47.466;19.004;2023-07-13T14:55:26;99676.56;;;28.15;62.59
59443;BME280;45247;47.466;19.004;2023-07-13T14:57:55;99671.75;;;28.24;61.34
59443;BME280;45247;47.466;19.004;2023-07-13T15:00:26;99665.72;;;28.09;61.13
59443;BME280;45247;47.466;19.004;2023-07-13T15:02:57;99661.34;;;28.08;61.55
59443;BME280;45247;47.466;19.004;2023-07-13T15:05:28;99676.38;;;28.10;60.68
59443;BME280;45247;47.466;19.004;2023-07-13T15:07:58;99682.63;;;28.11;61.05
59443;BME280;45247;47.466;19.004;2023-07-13T15:10:29;99687.44;;;28.15;61.26
59443;BME280;45247;47.466;19.004;2023-07-13T15:13:00;99692.66;;;27.97;61.74
59443;BME280;45247;47.466;19.004;2023-07-13T15:15:34;99694.31;;;28.05;63.24
59443;BME280;45247;47.466;19.004;2023-07-13T15:18:04;99691.19;;;28.08;62.95
59443;BME280;45247;47.466;19.004;2023-07-13T15:20:34;99687.63;;;28.07;62.83
59443;BME280;45247;47.466;19.004;2023-07-13T15:23:03;99685.53;;;28.09;61.94
59443;BME280;45247;47.466;19.004;2023-07-13T15:25:33;99681.00;;;27.97;62.85
59443;BME280;45247;47.466;19.004;2023-07-13T15:28:01;99668.84;;;27.66;63.92
59443;BME280;45247;47.466;19.004;2023-07-13T15:30:34;99678.38;;;27.35;64.02
59443;BME280;45247;47.466;19.004;2023-07-13T15:33:11;99679.00;;;27.24;65.80
59443;BME280;45247;47.466;19.004;2023-07-13T15:35:40;99675.84;;;27.14;66.24
59443;BME280;45247;47.466;19.004;2023-07-13T15:38:16;99675.38;;;27.04;67.20
59443;BME280;45247;47.466;19.004;2023-07-13T15:40:46;99666.66;;;27.15;67.28
59443;BME280;45247;47.466;19.004;2023-07-13T15:43:15;99652.91;;;27.10;67.36
59443;BME280;45247;47.466;19.004;2023-07-13T15:45:46;99647.31;;;27.11;68.04
59443;BME280;45247;47.466;19.004;2023-07-13T15:48:16;99641.22;;;27.03;67.41
59443;BME280;45247;47.466;19.004;2023-07-13T15:50:46;99651.63;;;26.99;68.30
59443;BME280;45247;47.466;19.004;2023-07-13T15:53:19;99665.81;;;27.08;68.56
59443;BME280;45247;47.466;19.004;2023-07-13T15:55:48;99667.94;;;27.12;67.27
59443;BME280;45247;47.466;19.004;2023-07-13T15:58:18;99668.97;;;27.18;68.96
59443;BME280;45247;47.466;19.004;2023-07-13T16:00:48;99682.13;;;27.21;67.80
59443;BME280;45247;47.466;19.004;2023-07-13T16:03:18;99681.69;;;27.17;67.97
59443;BME280;45247;47.466;19.004;2023-07-13T16:05:47;99689.59;;;27.19;67.21
59443;BME280;45247;47.466;19.004;2023-07-13T16:08:27;99707.91;;;27.10;67.41
59443;BME280;45247;47.466;19.004;2023-07-13T16:11:00;99713.13;;;27.18;67.50
59443;BME280;45247;47.466;19.004;2023-07-13T16:13:29;99720.00;;;27.14;66.88
59443;BME280;45247;47.466;19.004;2023-07-13T16:15:58;99721.25;;;27.18;67.23
59443;BME280;45247;47.466;19.004;2023-07-13T16:18:27;99717.50;;;27.13;66.34
59443;BME280;45247;47.466;19.004;2023-07-13T16:20:55;99712.50;;;27.10;66.40
59443;BME280;45247;47.466;19.004;2023-07-13T16:23:26;99717.38;;;26.93;66.75
59443;BME280;45247;47.466;19.004;2023-07-13T16:25:55;99717.34;;;26.80;67.47
59443;BME280;45247;47.466;19.004;2023-07-13T16:28:23;99712.75;;;26.80;68.33
59443;BME280;45247;47.466;19.004;2023-07-13T16:30:52;99711.47;;;26.76;69.54
59443;BME280;45247;47.466;19.004;2023-07-13T16:33:22;99705.22;;;26.69;70.13
59443;BME280;45247;47.466;19.004;2023-07-13T16:35:52;99706.50;;;26.73;70.56
59443;BME280;45247;47.466;19.004;2023-07-13T16:38:21;99700.44;;;26.71;71.81
59443;BME280;45247;47.466;19.004;2023-07-13T16:40:51;99696.06;;;26.70;72.14
59443;BME280;45247;47.466;19.004;2023-07-13T16:43:20;99691.91;;;26.74;72.81
59443;BME280;45247;47.466;19.004;2023-07-13T16:45:50;99692.31;;;26.71;73.73
59443;BME280;45247;47.466;19.004;2023-07-13T16:48:22;99693.13;;;26.71;74.72
59443;BME280;45247;47.466;19.004;2023-07-13T16:50:55;99684.41;;;26.69;73.50
59443;BME280;45247;47.466;19.004;2023-07-13T16:53:25;99686.44;;;26.61;73.68
59443;BME280;45247;47.466;19.004;2023-07-13T16:55:55;99680.38;;;26.59;75.47
59443;BME280;45247;47.466;19.004;2023-07-13T16:58:28;99670.59;;;26.51;74.13
59443;BME280;45247;47.466;19.004;2023-07-13T17:00:59;99668.84;;;26.43;76.15
59443;BME280;45247;47.466;19.004;2023-07-13T17:03:31;99672.75;;;26.34;75.94
59443;BME280;45247;47.466;19.004;2023-07-13T17:06:02;99674.94;;;26.24;76.39
59443;BME280;45247;47.466;19.004;2023-07-13T17:08:38;99675.16;;;26.22;78.03
59443;BME280;45247;47.466;19.004;2023-07-13T17:11:07;99675.53;;;26.19;79.10
59443;BME280;45247;47.466;19.004;2023-07-13T17:13:36;99664.88;;;26.11;77.73
59443;BME280;45247;47.466;19.004;2023-07-13T17:16:09;99665.09;;;26.10;77.70
59443;BME280;45247;47.466;19.004;2023-07-13T17:18:40;99668.19;;;26.07;79.58
59443;BME280;45247;47.466;19.004;2023-07-13T17:21:14;99677.47;;;25.97;82.98
59443;BME280;45247;47.466;19.004;2023-07-13T17:23:43;99663.41;;;25.81;86.90
59443;BME280;45247;47.466;19.004;2023-07-13T17:26:11;99674.22;;;25.81;85.82
59443;BME280;45247;47.466;19.004;2023-07-13T17:28:41;99671.38;;;25.67;88.31
59443;BME280;45247;47.466;19.004;2023-07-13T17:31:12;99685.00;;;25.59;87.72
59443;BME280;45247;47.466;19.004;2023-07-13T17:33:47;99697.69;;;25.59;87.14
59443;BME280;45247;47.466;19.004;2023-07-13T17:36:16;99696.78;;;25.52;90.21
59443;BME280;45247;47.466;19.004;2023-07-13T17:38:47;99700.00;;;25.40;90.91
59443;BME280;45247;47.466;19.004;2023-07-13T17:41:18;99697.81;;;25.29;92.33
59443;BME280;45247;47.466;19.004;2023-07-13T17:43:48;99693.91;;;25.17;92.90
59443;BME280;45247;47.466;19.004;2023-07-13T17:46:20;99692.06;;;25.03;93.41
59443;BME280;45247;47.466;19.004;2023-07-13T17:48:51;99689.84;;;24.91;95.40
59443;BME280;45247;47.466;19.004;2023-07-13T17:51:21;99691.47;;;24.86;95.47
59443;BME280;45247;47.466;19.004;2023-07-13T17:53:50;99698.06;;;24.83;93.78
59443;BME280;45247;47.466;19.004;2023-07-13T17:56:19;99693.06;;;24.80;93.80
59443;BME280;45247;47.466;19.004;2023-07-13T17:58:51;99684.66;;;24.75;92.77
59443;BME280;45247;47.466;19.004;2023-07-13T18:01:20;99688.41;;;24.74;92.24
59443;BME280;45247;47.466;19.004;2023-07-13T18:03:53;99690.47;;;24.72;91.71
59443;BME280;45247;47.466;19.004;2023-07-13T18:06:27;99693.78;;;24.74;92.51
59443;BME280;45247;47.466;19.004;2023-07-13T18:08:59;99706.66;;;24.72;92.98
59443;BME280;45247;47.466;19.004;2023-07-13T18:11:37;99710.75;;;24.68;92.97
59443;BME280;45247;47.466;19.004;2023-07-13T18:14:06;99708.41;;;24.65;93.34
59443;BME280;45247;47.466;19.004;2023-07-13T18:16:38;99707.38;;;24.66;92.63
59443;BME280;45247;47.466;19.004;2023-07-13T18:19:26;99708.22;;;24.66;94.70